createdAt,value
2022-10-22T00:00:18.680Z,16.65
2022-10-22T00:00:50.592Z,14.30
2022-10-22T00:01:22.967Z,15.60
2022-10-22T00:01:54.553Z,16.75
2022-10-22T00:02:27.841Z,18.27
2022-10-22T00:02:59.493Z,16.90
2022-10-22T00:03:31.071Z,17.10
2022-10-22T00:04:02.708Z,16.88
2022-10-22T00:04:35.635Z,18.98
2022-10-22T00:05:07.948Z,19.33
2022-10-22T00:05:39.567Z,20.50
2022-10-22T00:06:11.247Z,23.33
2022-10-22T00:06:44.983Z,21.67
2022-10-22T00:07:19.826Z,23.15
2022-10-22T00:07:51.407Z,18.00
2022-10-22T00:08:22.935Z,21.00
2022-10-22T00:08:54.508Z,17.73
2022-10-22T00:09:26.344Z,17.17
2022-10-22T00:09:57.937Z,18.60
2022-10-22T00:10:29.586Z,17.50
2022-10-22T00:11:08.611Z,17.92
2022-10-22T00:11:41.834Z,16.08
2022-10-22T00:12:15.161Z,18.90
2022-10-22T00:12:46.676Z,16.98
2022-10-22T00:13:19.091Z,17.05
2022-10-22T00:13:51.269Z,15.60
2022-10-22T00:14:22.859Z,18.67
2022-10-22T00:14:54.542Z,16.13
2022-10-22T00:15:26.256Z,16.05
2022-10-22T00:15:57.835Z,17.52
2022-10-22T00:16:29.406Z,16.00
2022-10-22T00:17:01.080Z,16.77
2022-10-22T00:17:32.598Z,16.25
2022-10-22T00:18:04.263Z,15.00
2022-10-22T00:18:36.568Z,16.70
2022-10-22T00:19:09.265Z,14.70
2022-10-22T00:19:41.132Z,15.75
2022-10-22T00:20:12.880Z,18.50
2022-10-22T00:20:44.454Z,16.05
2022-10-22T00:21:16.035Z,20.23
2022-10-22T00:21:47.594Z,16.38
2022-10-22T00:22:19.118Z,16.75
2022-10-22T00:23:27.085Z,18.10
2022-10-22T00:23:58.594Z,16.97
2022-10-22T00:24:30.107Z,14.73
2022-10-22T00:25:01.617Z,16.85
2022-10-22T00:25:35.816Z,15.23
2022-10-22T00:26:07.334Z,17.65
2022-10-22T00:26:40.371Z,17.38
2022-10-22T00:27:12.754Z,18.40
2022-10-22T00:27:44.266Z,21.42
2022-10-22T00:28:15.792Z,21.92
2022-10-22T00:28:47.302Z,20.15
2022-10-22T00:29:20.062Z,23.45
2022-10-22T00:29:51.565Z,21.30
2022-10-22T00:30:23.100Z,25.00
2022-10-22T00:30:59.058Z,27.38
2022-10-22T00:31:30.674Z,27.67
2022-10-22T00:32:02.602Z,25.85
2022-10-22T00:32:34.335Z,27.70
2022-10-22T00:33:05.946Z,25.67
2022-10-22T00:33:37.476Z,24.10
2022-10-22T00:34:09.021Z,24.25
2022-10-22T00:34:40.710Z,26.13
2022-10-22T00:35:12.250Z,23.85
2022-10-22T00:35:44.110Z,24.63
2022-10-22T00:36:16.822Z,20.60
2022-10-22T00:36:49.839Z,29.67
2022-10-22T00:37:21.485Z,31.42
2022-10-22T00:37:53.072Z,30.88
2022-10-22T00:38:24.970Z,30.98
2022-10-22T00:38:56.486Z,29.63
2022-10-22T00:39:28.746Z,28.42
2022-10-22T00:40:00.310Z,34.77
2022-10-22T00:40:31.875Z,28.13
2022-10-22T00:41:03.416Z,28.15
2022-10-22T00:41:34.948Z,31.45
2022-10-22T00:42:06.551Z,27.92
2022-10-22T00:42:38.424Z,27.27
2022-10-22T00:43:15.954Z,27.55
2022-10-22T00:43:58.288Z,26.05
2022-10-22T00:45:00.322Z,27.85
2022-10-22T00:45:31.937Z,22.45
2022-10-22T00:46:03.466Z,19.45
2022-10-22T00:46:34.986Z,20.25
2022-10-22T00:47:06.614Z,23.58
2022-10-22T00:48:01.412Z,24.65
2022-10-22T00:48:33.666Z,19.42
2022-10-22T00:49:05.211Z,21.92
2022-10-22T00:49:36.795Z,18.40
2022-10-22T00:50:13.858Z,22.13
2022-10-22T00:50:56.404Z,20.23
2022-10-22T00:51:33.627Z,24.63
2022-10-22T00:52:05.874Z,19.13
2022-10-22T00:52:37.841Z,20.27
2022-10-22T00:53:19.483Z,20.95
2022-10-22T00:53:55.972Z,18.85
2022-10-22T00:54:27.598Z,22.02
2022-10-22T00:55:00.780Z,17.77
2022-10-22T00:55:33.355Z,20.02
2022-10-22T00:56:06.134Z,22.08
2022-10-22T00:56:38.150Z,20.90
2022-10-22T00:57:09.951Z,22.65
2022-10-22T00:57:42.132Z,24.50
2022-10-22T00:58:14.104Z,21.83
2022-10-22T00:58:49.356Z,19.50
2022-10-22T00:59:20.939Z,20.48
2022-10-22T00:59:52.626Z,22.48
2022-10-22T01:00:24.896Z,24.27
2022-10-22T01:00:57.521Z,19.15
2022-10-22T01:01:31.922Z,22.63
2022-10-22T01:02:04.144Z,20.50
2022-10-22T01:02:35.826Z,22.27
2022-10-22T01:03:07.601Z,21.77
2022-10-22T01:03:39.139Z,19.88
2022-10-22T01:04:10.743Z,21.02
2022-10-22T01:04:42.728Z,22.10
2022-10-22T01:05:14.334Z,20.85
2022-10-22T01:06:00.638Z,20.73
2022-10-22T01:06:34.244Z,24.42
2022-10-22T01:07:06.074Z,23.73
2022-10-22T01:07:48.110Z,26.02
2022-10-22T01:08:39.654Z,19.90
2022-10-22T01:09:26.581Z,20.50
2022-10-22T01:10:26.062Z,22.48
2022-10-22T01:11:06.651Z,22.25
2022-10-22T01:11:51.710Z,24.23
2022-10-22T01:12:44.807Z,26.85
2022-10-22T01:13:33.146Z,20.98
2022-10-22T01:14:16.510Z,23.23
2022-10-22T01:15:12.955Z,22.13
2022-10-22T01:16:08.962Z,21.77
2022-10-22T01:17:30.951Z,21.08
2022-10-22T01:18:17.885Z,23.35
2022-10-22T01:19:03.066Z,21.48
2022-10-22T01:19:57.906Z,18.60
2022-10-22T01:20:46.111Z,21.00
2022-10-22T01:21:26.680Z,21.20
2022-10-22T01:22:14.169Z,19.35
2022-10-22T01:23:08.513Z,21.17
2022-10-22T01:24:09.326Z,21.42
2022-10-22T01:24:47.893Z,20.15
2022-10-22T01:25:35.071Z,21.55
2022-10-22T01:27:09.975Z,21.00
2022-10-22T01:28:10.699Z,20.63
2022-10-22T01:28:48.086Z,21.13
2022-10-22T01:29:45.007Z,22.85
2022-10-22T01:30:17.824Z,21.77
2022-10-22T01:30:53.778Z,23.35
2022-10-22T01:31:30.880Z,26.90
2022-10-22T01:32:10.354Z,22.17
2022-10-22T01:33:05.438Z,22.70
2022-10-22T01:33:38.672Z,23.57
2022-10-22T01:34:13.343Z,21.90
2022-10-22T01:34:52.167Z,25.90
2022-10-22T01:36:04.719Z,24.80
2022-10-22T01:36:37.783Z,23.80
2022-10-22T01:37:12.890Z,24.58
2022-10-22T01:37:54.123Z,21.75
2022-10-22T01:38:26.463Z,24.23
2022-10-22T01:39:00.672Z,21.77
2022-10-22T01:39:34.745Z,23.13
2022-10-22T01:40:08.908Z,23.67
2022-10-22T01:40:41.913Z,21.60
2022-10-22T01:41:13.950Z,23.65
2022-10-22T01:41:45.828Z,21.58
2022-10-22T01:42:17.874Z,23.85
2022-10-22T01:43:04.130Z,22.90
2022-10-22T01:43:35.638Z,24.98
2022-10-22T01:44:07.140Z,25.73
2022-10-22T01:44:39.052Z,27.77
2022-10-22T01:45:14.612Z,21.90
2022-10-22T01:45:56.500Z,24.50
2022-10-22T01:46:28.713Z,20.10
2022-10-22T01:47:36.587Z,23.33
2022-10-22T01:48:50.858Z,24.63
2022-10-22T01:49:52.117Z,22.60
2022-10-22T01:50:26.467Z,21.98
2022-10-22T01:51:25.493Z,21.75
2022-10-22T01:52:06.727Z,23.40
2022-10-22T01:53:24.684Z,25.35
2022-10-22T01:54:29.893Z,20.17
2022-10-22T01:55:21.178Z,23.23
2022-10-22T01:56:24.005Z,24.02
2022-10-22T01:57:22.295Z,25.98
2022-10-22T01:58:15.738Z,27.10
2022-10-22T01:59:05.487Z,29.27
2022-10-22T01:59:49.255Z,25.10
2022-10-22T02:01:33.582Z,30.73
2022-10-22T02:02:09.283Z,24.63
2022-10-22T02:02:40.789Z,25.35
2022-10-22T02:03:23.946Z,24.38
2022-10-22T02:04:06.225Z,24.58
2022-10-22T02:04:37.673Z,25.83
2022-10-22T02:05:15.056Z,21.40
2022-10-22T02:05:51.088Z,19.52
2022-10-22T02:06:25.152Z,23.38
2022-10-22T02:07:01.471Z,22.52
2022-10-22T02:07:39.745Z,23.30
2022-10-22T02:08:21.808Z,22.08
2022-10-22T02:08:54.732Z,21.83
2022-10-22T02:09:28.372Z,18.77
2022-10-22T02:10:01.280Z,18.77
2022-10-22T02:10:33.565Z,19.63
2022-10-22T02:11:06.219Z,20.15
2022-10-22T02:11:38.236Z,20.13
2022-10-22T02:12:11.185Z,19.63
2022-10-22T02:12:44.867Z,19.67
2022-10-22T02:13:23.189Z,20.38
2022-10-22T02:13:58.522Z,18.17
2022-10-22T02:14:31.472Z,18.52
2022-10-22T02:15:04.475Z,20.80
2022-10-22T02:15:38.395Z,17.67
2022-10-22T02:16:14.032Z,19.33
2022-10-22T02:16:47.664Z,18.67
2022-10-22T02:17:21.603Z,22.45
2022-10-22T02:17:56.910Z,18.67
2022-10-22T02:18:31.183Z,21.40
2022-10-22T02:19:10.511Z,19.17
2022-10-22T02:19:47.890Z,20.58
2022-10-22T02:20:31.335Z,20.65
2022-10-22T02:21:03.519Z,16.20
2022-10-22T02:21:35.469Z,21.98
2022-10-22T02:22:07.583Z,17.85
2022-10-22T02:22:40.217Z,21.60
2022-10-22T02:23:12.282Z,24.85
2022-10-22T02:23:44.688Z,18.73
2022-10-22T02:24:17.593Z,20.67
2022-10-22T02:24:49.912Z,20.08
2022-10-22T02:25:27.664Z,20.88
2022-10-22T02:26:06.157Z,18.77
2022-10-22T02:26:59.122Z,18.13
2022-10-22T02:27:36.067Z,21.02
2022-10-22T02:28:24.107Z,20.95
2022-10-22T02:29:14.503Z,20.13
2022-10-22T02:30:02.845Z,19.35
2022-10-22T02:30:38.597Z,18.17
2022-10-22T02:31:15.778Z,18.90
2022-10-22T02:31:50.176Z,20.48
2022-10-22T02:32:26.127Z,16.50
2022-10-22T02:32:57.614Z,19.40
2022-10-22T02:33:34.549Z,17.90
2022-10-22T02:34:11.137Z,18.08
2022-10-22T02:34:42.747Z,19.42
2022-10-22T02:35:19.340Z,18.17
2022-10-22T02:35:52.298Z,19.00
2022-10-22T02:36:24.814Z,19.77
2022-10-22T02:36:57.916Z,19.70
2022-10-22T02:37:29.819Z,19.17
2022-10-22T02:38:01.569Z,24.15
2022-10-22T02:38:34.759Z,20.30
2022-10-22T02:39:07.921Z,21.90
2022-10-22T02:39:40.258Z,19.70
2022-10-22T02:40:12.209Z,20.45
2022-10-22T02:40:43.874Z,20.00
2022-10-22T02:41:17.722Z,20.50
2022-10-22T02:41:49.435Z,19.25
2022-10-22T02:42:20.995Z,20.33
2022-10-22T02:42:53.220Z,21.30
2022-10-22T02:43:25.561Z,20.70
2022-10-22T02:43:57.135Z,20.87
2022-10-22T02:44:28.698Z,18.13
2022-10-22T02:45:00.212Z,18.98
2022-10-22T02:45:32.277Z,19.10
2022-10-22T02:46:03.956Z,21.42
2022-10-22T02:46:35.675Z,19.50
2022-10-22T02:47:07.278Z,20.88
2022-10-22T02:47:38.778Z,18.52
2022-10-22T02:48:10.400Z,22.42
2022-10-22T02:48:41.957Z,19.08
2022-10-22T02:49:13.538Z,18.42
2022-10-22T02:49:45.049Z,21.92
2022-10-22T02:50:17.137Z,21.77
2022-10-22T02:50:48.771Z,21.23
2022-10-22T02:51:20.370Z,21.58
2022-10-22T02:51:51.874Z,20.42
2022-10-22T02:52:23.382Z,20.92
2022-10-22T02:52:54.904Z,18.17
2022-10-22T02:53:26.476Z,20.15
2022-10-22T02:53:58.075Z,20.42
2022-10-22T02:54:29.650Z,20.08
2022-10-22T02:55:01.333Z,19.38
2022-10-22T02:55:32.869Z,20.05
2022-10-22T02:56:05.143Z,23.58
2022-10-22T02:56:36.678Z,19.38
2022-10-22T02:57:08.206Z,18.23
2022-10-22T02:57:40.297Z,20.40
2022-10-22T02:58:13.950Z,18.30
2022-10-22T02:58:45.494Z,20.38
2022-10-22T02:59:17.039Z,20.33
2022-10-22T02:59:48.572Z,20.85
2022-10-22T03:00:20.267Z,19.35
2022-10-22T03:00:52.068Z,21.52
2022-10-22T03:01:23.856Z,19.27
2022-10-22T03:01:55.400Z,21.50
2022-10-22T03:02:26.923Z,19.25
2022-10-22T03:02:58.428Z,18.92
2022-10-22T03:03:29.938Z,20.63
2022-10-22T03:04:01.453Z,19.80
2022-10-22T03:04:33.079Z,20.90
2022-10-22T03:05:05.454Z,17.55
2022-10-22T03:05:36.949Z,20.30
2022-10-22T03:06:08.920Z,20.55
2022-10-22T03:06:43.886Z,21.30
2022-10-22T03:07:15.705Z,21.08
2022-10-22T03:07:47.216Z,19.15
2022-10-22T03:08:18.842Z,19.20
2022-10-22T03:08:50.420Z,19.13
2022-10-22T03:09:24.149Z,19.30
2022-10-22T03:09:56.446Z,18.05
2022-10-22T03:10:27.970Z,20.15
2022-10-22T03:10:59.538Z,21.65
2022-10-22T03:11:31.054Z,23.73
2022-10-22T03:12:02.571Z,19.38
2022-10-22T03:12:34.190Z,19.20
2022-10-22T03:13:05.723Z,20.35
2022-10-22T03:13:37.290Z,18.83
2022-10-22T03:14:08.810Z,18.05
2022-10-22T03:14:40.415Z,20.10
2022-10-22T03:15:11.936Z,17.23
2022-10-22T03:15:43.494Z,18.63
2022-10-22T03:16:15.086Z,18.42
2022-10-22T03:16:46.723Z,18.88
2022-10-22T03:17:18.227Z,20.83
2022-10-22T03:17:49.763Z,17.88
2022-10-22T03:18:21.294Z,17.10
2022-10-22T03:18:52.843Z,16.83
2022-10-22T03:19:24.372Z,22.83
2022-10-22T03:19:55.928Z,19.08
2022-10-22T03:20:27.750Z,18.10
2022-10-22T03:21:20.944Z,19.00
2022-10-22T03:21:58.788Z,18.60
2022-10-22T03:22:32.695Z,18.90
2022-10-22T03:23:04.441Z,21.15
2022-10-22T03:23:37.350Z,21.63
2022-10-22T03:24:15.018Z,20.48
2022-10-22T03:24:50.298Z,19.10
2022-10-22T03:25:25.278Z,17.45
2022-10-22T03:25:56.823Z,21.58
2022-10-22T03:26:28.904Z,21.30
2022-10-22T03:27:00.484Z,17.10
2022-10-22T03:27:32.006Z,19.40
2022-10-22T03:28:06.620Z,19.73
2022-10-22T03:28:39.640Z,17.60
2022-10-22T03:29:12.962Z,20.00
2022-10-22T03:29:44.718Z,17.23
2022-10-22T03:30:16.282Z,20.02
2022-10-22T03:30:47.790Z,19.05
2022-10-22T03:31:19.291Z,18.55
2022-10-22T03:31:50.919Z,21.23
2022-10-22T03:32:22.530Z,20.42
2022-10-22T03:32:54.022Z,21.40
2022-10-22T03:33:25.538Z,20.60
2022-10-22T03:33:57.038Z,17.00
2022-10-22T03:34:28.829Z,20.45
2022-10-22T03:35:42.682Z,20.35
2022-10-22T03:36:14.235Z,21.88
2022-10-22T03:36:46.369Z,18.85
2022-10-22T03:37:18.213Z,18.35
2022-10-22T03:37:50.268Z,18.92
2022-10-22T03:38:21.882Z,20.55
2022-10-22T03:38:53.962Z,19.88
2022-10-22T03:39:27.099Z,18.58
2022-10-22T03:39:58.914Z,19.52
2022-10-22T03:40:30.446Z,18.58
2022-10-22T03:41:02.239Z,19.10
2022-10-22T03:41:34.745Z,18.00
2022-10-22T03:42:07.456Z,21.80
2022-10-22T03:42:40.212Z,18.42
2022-10-22T03:43:12.020Z,20.13
2022-10-22T03:43:45.156Z,17.33
2022-10-22T03:44:17.998Z,17.95
2022-10-22T03:44:49.840Z,17.17
2022-10-22T03:45:21.344Z,19.27
2022-10-22T03:45:52.840Z,20.67
2022-10-22T03:46:24.418Z,18.17
2022-10-22T03:46:58.732Z,16.90
2022-10-22T03:47:33.269Z,20.83
2022-10-22T03:48:05.194Z,17.38
2022-10-22T03:48:36.694Z,17.45
2022-10-22T03:49:08.204Z,19.05
2022-10-22T03:49:39.768Z,17.23
2022-10-22T03:50:11.332Z,16.90
2022-10-22T03:50:42.859Z,16.98
2022-10-22T03:51:14.372Z,17.75
2022-10-22T03:51:45.889Z,16.92
2022-10-22T03:52:18.162Z,17.02
2022-10-22T03:52:49.670Z,19.77
2022-10-22T03:53:21.244Z,16.65
2022-10-22T03:53:52.756Z,16.60
2022-10-22T03:54:24.276Z,17.50
2022-10-22T03:54:55.851Z,18.25
2022-10-22T03:55:27.558Z,16.45
2022-10-22T03:55:59.080Z,22.38
2022-10-22T03:56:31.013Z,27.88
2022-10-22T03:57:03.451Z,34.22
2022-10-22T03:57:35.057Z,29.48
2022-10-22T03:58:06.598Z,26.38
2022-10-22T03:58:40.291Z,24.38
2022-10-22T03:59:13.160Z,25.02
2022-10-22T03:59:46.458Z,24.25
2022-10-22T04:00:18.234Z,26.20
2022-10-22T04:00:49.849Z,27.77
2022-10-22T04:01:21.462Z,22.05
2022-10-22T04:01:53.095Z,25.55
2022-10-22T04:02:24.607Z,29.00
2022-10-22T04:02:56.303Z,29.40
2022-10-22T04:03:27.792Z,27.27
2022-10-22T04:03:59.710Z,22.45
2022-10-22T04:04:31.340Z,23.98
2022-10-22T04:05:02.986Z,18.17
2022-10-22T04:05:34.570Z,17.02
2022-10-22T04:06:12.294Z,18.95
2022-10-22T04:06:43.808Z,21.80
2022-10-22T04:07:15.316Z,18.40
2022-10-22T04:07:46.830Z,18.05
2022-10-22T04:08:18.372Z,18.63
2022-10-22T04:08:49.982Z,18.17
2022-10-22T04:09:21.642Z,18.23
2022-10-22T04:09:53.204Z,18.15
2022-10-22T04:10:24.898Z,20.65
2022-10-22T04:10:56.434Z,17.10
2022-10-22T04:11:28.026Z,17.00
2022-10-22T04:12:00.114Z,19.02
2022-10-22T04:12:31.617Z,16.92
2022-10-22T04:13:03.132Z,17.92
2022-10-22T04:13:34.688Z,16.40
2022-10-22T04:14:06.235Z,17.92
2022-10-22T04:14:37.734Z,17.60
2022-10-22T04:15:09.855Z,18.25
2022-10-22T04:15:41.385Z,18.63
2022-10-22T04:16:15.482Z,15.20
2022-10-22T04:16:46.984Z,16.48
2022-10-22T04:17:18.899Z,17.83
2022-10-22T04:17:50.405Z,16.17
2022-10-22T04:18:23.567Z,19.65
2022-10-22T04:18:55.663Z,18.48
2022-10-22T04:19:27.167Z,15.93
2022-10-22T04:19:58.719Z,18.00
2022-10-22T04:20:30.217Z,15.93
2022-10-22T04:21:01.866Z,17.00
2022-10-22T04:21:34.294Z,16.67
2022-10-22T04:22:05.789Z,18.02
2022-10-22T04:22:37.348Z,18.85
2022-10-22T04:23:08.916Z,16.73
2022-10-22T04:23:48.172Z,18.73
2022-10-22T04:24:19.706Z,19.13
2022-10-22T04:25:27.619Z,29.73
2022-10-22T04:26:00.757Z,32.30
2022-10-22T04:26:32.403Z,20.88
2022-10-22T04:27:04.052Z,24.05
2022-10-22T04:27:35.657Z,27.48
2022-10-22T04:28:08.292Z,35.63
2022-10-22T04:28:39.840Z,41.90
2022-10-22T04:29:13.613Z,36.58
2022-10-22T04:29:47.666Z,34.03
2022-10-22T04:30:19.235Z,30.23
2022-10-22T04:30:50.728Z,28.17
2022-10-22T04:31:24.655Z,28.23
2022-10-22T04:31:56.157Z,27.40
2022-10-22T04:32:28.295Z,24.80
2022-10-22T04:32:59.833Z,25.20
2022-10-22T04:33:31.373Z,21.45
2022-10-22T04:34:02.879Z,20.13
2022-10-22T04:34:34.435Z,21.98
2022-10-22T04:35:06.316Z,22.38
2022-10-22T04:35:39.910Z,19.83
2022-10-22T04:36:17.623Z,21.10
2022-10-22T04:36:49.130Z,21.60
2022-10-22T04:37:21.008Z,19.70
2022-10-22T04:37:52.515Z,19.23
2022-10-22T04:38:24.247Z,19.88
2022-10-22T04:38:58.445Z,19.98
2022-10-22T04:39:30.453Z,21.73
2022-10-22T04:40:02.001Z,20.00
2022-10-22T04:40:33.523Z,21.42
2022-10-22T04:41:12.038Z,19.60
2022-10-22T04:41:43.653Z,21.08
2022-10-22T04:42:15.181Z,20.27
2022-10-22T04:42:46.732Z,21.02
2022-10-22T04:43:18.226Z,20.30
2022-10-22T04:43:50.092Z,20.98
2022-10-22T04:44:21.985Z,21.67
2022-10-22T04:44:53.676Z,20.30
2022-10-22T04:45:25.225Z,20.15
2022-10-22T04:46:00.435Z,20.90
2022-10-22T04:46:34.447Z,21.77
2022-10-22T04:47:06.004Z,23.27
2022-10-22T04:47:37.769Z,24.10
2022-10-22T04:48:09.369Z,24.48
2022-10-22T04:48:42.188Z,25.95
2022-10-22T04:49:13.800Z,24.02
2022-10-22T04:49:45.293Z,24.90
2022-10-22T04:50:16.862Z,24.40
2022-10-22T04:50:48.365Z,25.60
2022-10-22T04:51:22.071Z,25.10
2022-10-22T04:51:53.969Z,27.67
2022-10-22T04:52:25.469Z,26.33
2022-10-22T04:52:56.962Z,26.33
2022-10-22T04:53:28.559Z,24.98
2022-10-22T04:54:00.152Z,27.75
2022-10-22T04:54:33.129Z,26.10
2022-10-22T04:55:05.301Z,25.52
2022-10-22T04:55:36.810Z,24.52
2022-10-22T04:56:09.236Z,25.45
2022-10-22T04:56:40.825Z,26.25
2022-10-22T04:57:12.645Z,24.55
2022-10-22T04:57:44.266Z,26.30
2022-10-22T04:58:15.774Z,23.65
2022-10-22T04:58:54.309Z,25.35
2022-10-22T04:59:25.936Z,24.27
2022-10-22T04:59:57.457Z,23.60
2022-10-22T05:00:28.969Z,22.70
2022-10-22T05:01:00.547Z,25.25
2022-10-22T05:01:41.748Z,26.08
2022-10-22T05:02:14.884Z,26.60
2022-10-22T05:02:50.009Z,28.80
2022-10-22T05:03:21.500Z,26.75
2022-10-22T05:03:54.967Z,25.98
2022-10-22T05:04:26.474Z,28.48
2022-10-22T05:04:58.008Z,23.98
2022-10-22T05:05:29.498Z,24.33
2022-10-22T05:06:01.889Z,26.23
2022-10-22T05:06:35.059Z,25.50
2022-10-22T05:07:06.572Z,25.13
2022-10-22T05:07:38.274Z,25.45
2022-10-22T05:08:10.034Z,24.92
2022-10-22T05:08:43.514Z,24.23
2022-10-22T05:09:18.190Z,27.88
2022-10-22T05:09:50.173Z,26.20
2022-10-22T05:10:21.702Z,27.27
2022-10-22T05:10:53.202Z,27.30
2022-10-22T05:11:34.014Z,27.50
2022-10-22T05:12:06.484Z,27.02
2022-10-22T05:12:38.065Z,27.50
2022-10-22T05:13:09.591Z,25.52
2022-10-22T05:13:41.181Z,24.92
2022-10-22T05:14:13.119Z,23.48
2022-10-22T05:14:44.953Z,25.98
2022-10-22T05:15:16.621Z,24.25
2022-10-22T05:15:48.127Z,22.05
2022-10-22T05:16:19.675Z,24.92
2022-10-22T05:16:52.240Z,25.23
2022-10-22T05:17:23.740Z,26.08
2022-10-22T05:17:55.277Z,26.13
2022-10-22T05:18:26.799Z,24.48
2022-10-22T05:19:00.027Z,23.77
2022-10-22T05:19:31.907Z,25.33
2022-10-22T05:20:05.231Z,29.75
2022-10-22T05:20:40.468Z,28.50
2022-10-22T05:21:15.330Z,26.85
2022-10-22T05:21:47.026Z,25.92
2022-10-22T05:22:18.591Z,26.67
2022-10-22T05:22:50.090Z,27.65
2022-10-22T05:23:21.596Z,26.98
2022-10-22T05:23:55.794Z,27.48
2022-10-22T05:24:28.587Z,28.48
2022-10-22T05:25:00.090Z,26.40
2022-10-22T05:25:31.626Z,28.52
2022-10-22T05:26:08.062Z,26.13
2022-10-22T05:26:39.606Z,30.92
2022-10-22T05:27:11.151Z,29.23
2022-10-22T05:27:42.857Z,27.33
2022-10-22T05:28:14.622Z,28.83
2022-10-22T05:28:47.609Z,26.60
2022-10-22T05:29:19.972Z,23.08
2022-10-22T05:29:51.729Z,22.55
2022-10-22T05:30:23.257Z,23.40
2022-10-22T05:30:56.640Z,21.95
2022-10-22T05:31:28.961Z,20.98
2022-10-22T05:32:00.605Z,20.15
2022-10-22T05:32:32.131Z,19.00
2022-10-22T05:33:03.762Z,20.08
2022-10-22T05:33:35.327Z,20.55
2022-10-22T05:34:06.895Z,19.92
2022-10-22T05:34:38.413Z,23.55
2022-10-22T05:35:09.941Z,19.80
2022-10-22T05:35:45.574Z,17.70
2022-10-22T05:36:20.996Z,19.88
2022-10-22T05:36:52.535Z,18.20
2022-10-22T05:37:24.079Z,18.60
2022-10-22T05:38:28.163Z,20.63
2022-10-22T05:38:59.686Z,19.33
2022-10-22T05:39:31.202Z,21.52
2022-10-22T05:40:18.931Z,19.52
2022-10-22T05:41:10.767Z,21.30
2022-10-22T05:41:42.334Z,21.92
2022-10-22T05:42:13.867Z,21.05
2022-10-22T05:42:45.372Z,21.75
2022-10-22T05:43:16.922Z,23.05
2022-10-22T05:43:48.845Z,23.35
2022-10-22T05:44:20.413Z,22.25
2022-10-22T05:44:53.082Z,21.95
2022-10-22T05:45:24.617Z,22.17
2022-10-22T05:45:56.393Z,18.63
2022-10-22T05:46:30.712Z,18.55
2022-10-22T05:47:02.275Z,17.80
2022-10-22T05:47:33.857Z,18.65
2022-10-22T05:48:06.610Z,18.38
2022-10-22T05:48:38.497Z,20.00
2022-10-22T05:49:13.553Z,21.50
2022-10-22T05:49:45.071Z,20.95
2022-10-22T05:50:16.601Z,19.95
2022-10-22T05:50:50.775Z,19.75
2022-10-22T05:51:23.009Z,24.52
2022-10-22T05:51:54.532Z,20.10
2022-10-22T05:52:26.556Z,24.00
2022-10-22T05:52:58.062Z,22.33
2022-10-22T05:53:29.567Z,22.02
2022-10-22T05:54:03.343Z,22.25
2022-10-22T05:54:34.995Z,25.20
2022-10-22T05:55:06.884Z,24.63
2022-10-22T05:55:40.578Z,22.00
2022-10-22T05:56:15.244Z,21.95
2022-10-22T05:56:46.807Z,20.38
2022-10-22T05:57:18.339Z,22.23
2022-10-22T05:57:50.225Z,22.05
2022-10-22T05:58:21.717Z,26.92
2022-10-22T05:58:53.289Z,21.95
2022-10-22T05:59:24.901Z,21.42
2022-10-22T05:59:56.397Z,25.05
2022-10-22T06:00:27.903Z,22.00
2022-10-22T06:01:08.114Z,19.83
2022-10-22T06:01:40.625Z,20.30
2022-10-22T06:02:12.573Z,21.50
2022-10-22T06:02:44.415Z,18.48
2022-10-22T06:03:15.914Z,18.80
2022-10-22T06:03:48.641Z,19.30
2022-10-22T06:04:20.152Z,18.40
2022-10-22T06:04:51.652Z,19.60
2022-10-22T06:05:23.179Z,20.33
2022-10-22T06:05:54.717Z,21.02
2022-10-22T06:06:31.534Z,19.40
2022-10-22T06:07:03.259Z,20.85
2022-10-22T06:07:35.983Z,20.75
2022-10-22T06:08:15.614Z,18.83
2022-10-22T06:08:52.815Z,19.88
2022-10-22T06:09:27.776Z,20.33
2022-10-22T06:09:59.819Z,18.77
2022-10-22T06:10:31.874Z,19.85
2022-10-22T06:11:03.471Z,18.60
2022-10-22T06:11:35.423Z,19.63
2022-10-22T06:12:10.811Z,18.58
2022-10-22T06:12:42.556Z,20.23
2022-10-22T06:13:14.408Z,22.05
2022-10-22T06:13:46.820Z,17.98
2022-10-22T06:14:19.641Z,20.15
2022-10-22T06:14:51.259Z,19.05
2022-10-22T06:15:22.835Z,19.42
2022-10-22T06:15:54.432Z,20.45
2022-10-22T06:16:29.697Z,19.88
2022-10-22T06:17:01.281Z,21.42
2022-10-22T06:17:32.836Z,22.10
2022-10-22T06:18:04.384Z,19.60
2022-10-22T06:18:36.056Z,20.42
2022-10-22T06:19:08.286Z,22.23
2022-10-22T06:19:39.801Z,24.67
2022-10-22T06:20:12.352Z,19.10
2022-10-22T06:20:45.445Z,19.73
2022-10-22T06:21:17.131Z,20.05
2022-10-22T06:21:49.093Z,22.73
2022-10-22T06:22:20.601Z,19.48
2022-10-22T06:22:52.107Z,22.65
2022-10-22T06:23:23.631Z,19.85
2022-10-22T06:23:59.519Z,22.10
2022-10-22T06:24:31.209Z,22.40
2022-10-22T06:25:02.760Z,21.73
2022-10-22T06:25:34.275Z,20.15
2022-10-22T06:26:07.337Z,20.80
2022-10-22T06:26:39.210Z,21.88
2022-10-22T06:27:10.732Z,19.83
2022-10-22T06:27:42.283Z,20.42
2022-10-22T06:28:13.797Z,20.25
2022-10-22T06:28:45.355Z,23.63
2022-10-22T06:29:17.186Z,19.33
2022-10-22T06:29:48.939Z,22.20
2022-10-22T06:30:20.508Z,24.30
2022-10-22T06:30:52.066Z,20.35
2022-10-22T06:31:25.410Z,19.20
2022-10-22T06:31:56.916Z,22.75
2022-10-22T06:32:28.423Z,23.58
2022-10-22T06:32:59.950Z,20.92
2022-10-22T06:33:34.074Z,21.50
2022-10-22T06:34:08.386Z,25.20
2022-10-22T06:34:39.975Z,20.20
2022-10-22T06:35:11.554Z,20.33
2022-10-22T06:35:43.090Z,21.88
2022-10-22T06:36:17.651Z,20.75
2022-10-22T06:36:49.303Z,19.35
2022-10-22T06:37:20.824Z,19.48
2022-10-22T06:37:52.333Z,22.10
2022-10-22T06:38:23.931Z,22.55
2022-10-22T06:38:55.899Z,21.58
2022-10-22T06:39:27.523Z,26.90
2022-10-22T06:39:59.101Z,22.15
2022-10-22T06:40:30.643Z,23.23
2022-10-22T06:41:04.440Z,22.33
2022-10-22T06:41:36.162Z,24.08
2022-10-22T06:42:07.721Z,21.00
2022-10-22T06:42:39.520Z,24.92
2022-10-22T06:43:13.068Z,24.67
2022-10-22T06:43:46.866Z,24.20
2022-10-22T06:44:19.753Z,26.15
2022-10-22T06:44:51.324Z,22.83
2022-10-22T06:45:22.894Z,22.27
2022-10-22T06:45:59.848Z,29.35
2022-10-22T06:46:32.201Z,25.77
2022-10-22T06:47:03.758Z,29.90
2022-10-22T06:47:35.346Z,25.65
2022-10-22T06:48:07.228Z,25.42
2022-10-22T06:48:40.114Z,25.17
2022-10-22T06:49:15.337Z,22.75
2022-10-22T06:49:48.588Z,23.38
2022-10-22T06:50:20.096Z,22.63
2022-10-22T06:50:51.635Z,23.88
2022-10-22T06:51:23.659Z,22.20
2022-10-22T06:51:55.344Z,23.25
2022-10-22T06:52:26.889Z,25.20
2022-10-22T06:52:58.433Z,24.38
2022-10-22T06:53:30.645Z,20.92
2022-10-22T06:54:02.147Z,24.33
2022-10-22T06:54:33.768Z,23.63
2022-10-22T06:55:05.688Z,22.05
2022-10-22T06:55:37.217Z,21.17
2022-10-22T06:56:11.772Z,23.00
2022-10-22T06:56:43.377Z,23.60
2022-10-22T06:57:14.892Z,26.38
2022-10-22T06:57:46.401Z,27.37
2022-10-22T06:58:18.450Z,26.27
2022-10-22T06:58:51.390Z,25.42
2022-10-22T06:59:22.887Z,26.92
2022-10-22T06:59:54.384Z,26.70
2022-10-22T07:00:26.005Z,25.23
2022-10-22T07:01:05.301Z,27.92
2022-10-22T07:01:38.068Z,26.63
2022-10-22T07:02:10.387Z,24.98
2022-10-22T07:02:42.196Z,31.88
2022-10-22T07:03:14.780Z,24.90
2022-10-22T07:03:46.733Z,25.17
2022-10-22T07:04:18.248Z,25.02
2022-10-22T07:04:49.748Z,27.45
2022-10-22T07:05:21.303Z,25.52
2022-10-22T07:05:52.840Z,25.70
2022-10-22T07:06:25.679Z,23.02
2022-10-22T07:06:57.224Z,24.73
2022-10-22T07:07:28.769Z,26.80
2022-10-22T07:08:00.310Z,27.05
2022-10-22T07:08:32.160Z,28.07
2022-10-22T07:09:04.120Z,25.17
2022-10-22T07:09:35.815Z,28.38
2022-10-22T07:10:08.066Z,25.25
2022-10-22T07:10:39.615Z,25.40
2022-10-22T07:11:20.878Z,25.15
2022-10-22T07:11:52.379Z,24.90
2022-10-22T07:12:23.886Z,25.13
2022-10-22T07:12:55.405Z,25.75
2022-10-22T07:13:26.928Z,24.92
2022-10-22T07:13:59.931Z,29.93
2022-10-22T07:14:31.453Z,24.00
2022-10-22T07:15:03.187Z,25.73
2022-10-22T07:15:34.745Z,29.05
2022-10-22T07:16:07.796Z,27.95
2022-10-22T07:16:42.121Z,22.90
2022-10-22T07:17:13.631Z,28.95
2022-10-22T07:17:45.279Z,27.05
2022-10-22T07:18:16.796Z,25.25
2022-10-22T07:18:48.997Z,28.63
2022-10-22T07:19:20.511Z,28.20
2022-10-22T07:19:52.099Z,26.05
2022-10-22T07:20:23.710Z,27.13
2022-10-22T07:20:55.401Z,29.65
2022-10-22T07:21:27.137Z,25.65
2022-10-22T07:21:58.757Z,30.58